Time;durP1;ratioP1;P1;durP2;ratioP2;P2;SDS_P1;SDS_P2;PMS_P1;PMS_P2;Temp;Humidity;BMP_temperature;BMP_pressure;BME280_temperature;BME280_humidity;BME280_pressure;Samples;Min_cycle;Max_cycle;Signal;HPM_P1;HPM_P2
2022/03/23 00:01:40;;;;;;;31.35;6.35;;;;;;;1.44;44.95;101270.28;5002934;28;20151;-83
2022/03/23 00:04:06;;;;;;;26.40;6.28;;;;;;;1.52;45.48;101280.09;5006977;28;20037;-81
2022/03/23 00:06:33;;;;;;;26.23;7.90;;;;;;;1.20;45.61;101227.22;4990940;28;20037;-81
2022/03/23 00:09:00;;;;;;;20.73;6.10;;;;;;;1.24;45.18;101251.31;5011882;28;20041;-81
2022/03/23 00:11:27;;;;;;;21.33;6.00;;;;;;;1.25;45.09;101273.59;5017400;28;20041;-82
2022/03/23 00:13:54;;;;;;;17.48;5.47;;;;;;;1.27;45.85;101273.66;5025197;28;20497;-80
2022/03/23 00:16:21;;;;;;;18.40;6.35;;;;;;;1.10;45.79;101253.16;5025152;28;20034;-81
2022/03/23 00:18:46;;;;;;;22.13;5.88;;;;;;;0.96;45.87;101229.34;5025250;28;20080;-81
2022/03/23 00:21:13;;;;;;;25.80;6.43;;;;;;;1.27;46.13;101278.78;5024632;28;20041;-82
2022/03/23 00:23:39;;;;;;;20.23;5.95;;;;;;;1.24;46.31;101270.94;5025589;28;20586;-80
2022/03/23 00:26:05;;;;;;;21.58;5.82;;;;;;;1.12;46.17;101261.81;5026381;28;20077;-81
2022/03/23 00:28:31;;;;;;;17.45;5.97;;;;;;;0.97;46.18;101227.69;5027441;28;20051;-80
2022/03/23 00:30:57;;;;;;;25.65;6.18;;;;;;;1.00;46.40;101232.94;5028441;28;20499;-80
2022/03/23 00:33:23;;;;;;;24.38;7.28;;;;;;;0.95;46.08;101224.16;5035914;28;20067;-81
2022/03/23 00:35:50;;;;;;;23.27;7.00;;;;;;;1.04;45.97;101252.81;5030508;28;20420;-80
2022/03/23 00:38:17;;;;;;;15.93;5.47;;;;;;;1.14;45.71;101264.44;5029224;28;20049;-81
2022/03/23 00:40:46;;;;;;;22.13;6.43;;;;;;;0.78;46.45;101195.91;5012045;28;20129;-80
2022/03/23 00:43:14;;;;;;;19.83;6.57;;;;;;;1.24;46.02;101265.81;5019716;28;20033;-80
2022/03/23 00:45:40;;;;;;;24.58;6.43;;;;;;;1.11;45.79;101241.19;5029508;28;20046;-80
2022/03/23 00:48:07;;;;;;;19.80;6.43;;;;;;;1.15;46.31;101253.38;5015793;28;20052;-83
2022/03/23 00:50:34;;;;;;;21.77;6.82;;;;;;;1.09;45.45;101240.28;5014509;28;20435;-83
2022/03/23 00:53:00;;;;;;;18.65;6.28;;;;;;;1.05;46.17;101239.19;5023679;28;20045;-82
2022/03/23 00:55:26;;;;;;;22.70;6.85;;;;;;;0.79;46.38;101200.25;5014015;28;20353;-81
2022/03/23 00:57:52;;;;;;;33.20;8.35;;;;;;;1.10;45.57;101244.59;5021934;28;20067;-82
2022/03/23 01:00:20;;;;;;;21.15;6.10;;;;;;;0.84;46.24;101213.31;5025553;28;20855;-81
2022/03/23 01:02:47;;;;;;;20.77;6.80;;;;;;;0.88;46.50;101225.50;5005185;28;20099;-82
2022/03/23 01:05:16;;;;;;;25.02;7.45;;;;;;;0.92;46.11;101253.03;5022707;28;20045;-80
2022/03/23 01:07:42;;;;;;;19.17;7.15;;;;;;;0.82;46.59;101253.38;5027531;28;20045;-81
2022/03/23 01:10:12;;;;;;;23.00;7.57;;;;;;;0.70;47.22;101227.97;5008844;28;20150;-81
2022/03/23 01:13:20;;;;;;;24.02;6.03;;;;;;;0.90;46.55;101258.09;5012238;28;20451;-81
2022/03/23 01:15:55;;;;;;;26.73;7.72;;;;;;;0.63;47.13;101206.25;5031392;28;20449;-80
2022/03/23 01:18:21;;;;;;;24.27;7.15;;;;;;;0.91;46.70;101251.28;5023639;28;20045;-82
2022/03/23 01:20:47;;;;;;;21.55;7.47;;;;;;;0.32;46.56;101152.47;5021288;28;20091;-82
2022/03/23 01:23:15;;;;;;;24.90;6.95;;;;;;;0.66;46.78;101215.78;5035982;28;20037;-80
2022/03/23 01:25:41;;;;;;;20.60;6.68;;;;;;;0.83;46.52;101245.75;5039930;28;20025;-82
2022/03/23 01:28:09;;;;;;;21.92;6.15;;;;;;;0.69;47.33;101209.13;5027316;28;20033;-81
2022/03/23 01:30:36;;;;;;;23.02;8.07;;;;;;;0.77;47.00;101213.78;5027808;28;20037;-80
2022/03/23 01:33:03;;;;;;;75.60;33.67;;;;;;;0.69;47.22;101204.00;5033249;28;20160;-81
2022/03/23 01:35:29;;;;;;;37.08;10.13;;;;;;;0.88;47.08;101239.19;5022230;28;20037;-81
2022/03/23 01:37:54;;;;;;;30.65;8.10;;;;;;;0.83;47.14;101219.25;5038109;28;20034;-81
2022/03/23 01:40:21;;;;;;;37.63;8.65;;;;;;;0.55;47.14;101182.75;5010205;28;20049;-81
2022/03/23 01:43:17;;;;;;;21.98;7.45;;;;;;;0.69;47.58;101201.44;5023833;28;20069;-80
2022/03/23 01:46:23;;;;;;;23.08;7.50;;;;;;;0.78;47.67;101226.66;5009130;28;20072;-81
2022/03/23 01:48:49;;;;;;;25.75;7.07;;;;;;;0.69;46.83;101216.81;5008239;28;20050;-80
2022/03/23 01:51:16;;;;;;;19.80;7.53;;;;;;;0.76;47.38;101220.59;5023296;28;20051;-80
2022/03/23 01:53:41;;;;;;;20.45;6.82;;;;;;;0.72;47.41;101242.59;5008513;28;20072;-81
2022/03/23 01:56:11;;;;;;;25.45;7.35;;;;;;;0.10;47.25;101135.94;5024925;28;20069;-80
2022/03/23 01:58:38;;;;;;;32.60;8.82;;;;;;;0.67;46.94;101227.78;5026191;28;20050;-81
2022/03/23 02:01:09;;;;;;;37.80;9.30;;;;;;;0.46;47.30;101200.22;4992855;28;20042;-82
2022/03/23 02:03:35;;;;;;;28.38;8.52;;;;;;;0.55;47.95;101222.88;5028516;28;20037;-80
2022/03/23 02:06:02;;;;;;;33.35;8.98;;;;;;;0.41;47.61;101206.75;5005636;28;20037;-82
2022/03/23 02:08:29;;;;;;;35.42;8.63;;;;;;;0.31;48.04;101187.44;5010462;28;20358;-81
2022/03/23 02:10:55;;;;;;;37.88;9.30;;;;;;;0.44;47.97;101210.34;5017966;28;20041;-81
2022/03/23 02:13:30;;;;;;;31.52;9.05;;;;;;;0.52;47.96;101227.84;5006134;28;20076;-81
2022/03/23 02:15:58;;;;;;;33.00;9.15;;;;;;;0.36;48.46;101187.69;5023662;28;20106;-82
2022/03/23 02:18:27;;;;;;;28.42;9.25;;;;;;;0.41;48.37;101209.31;5010971;28;20073;-80
2022/03/23 02:20:54;;;;;;;28.23;9.90;;;;;;;0.34;48.43;101186.72;5019419;28;20046;-81
2022/03/23 02:23:20;;;;;;;33.50;10.25;;;;;;;0.34;47.98;101191.84;4989734;28;20041;-83
2022/03/23 02:25:49;;;;;;;27.67;10.80;;;;;;;0.31;47.93;101190.00;5019190;28;20058;-81
2022/03/23 02:28:16;;;;;;;40.58;10.27;;;;;;;0.45;48.39;101222.34;4991706;28;20095;-81
2022/03/23 02:30:42;;;;;;;37.53;11.68;;;;;;;0.40;48.62;101213.56;5022835;28;20041;-81
2022/03/23 02:33:09;;;;;;;49.55;11.40;;;;;;;0.34;48.71;101202.06;5020632;28;20045;-81
2022/03/23 02:35:35;;;;;;;51.08;12.10;;;;;;;0.35;48.82;101194.50;5023325;28;20509;-80
2022/03/23 02:38:01;;;;;;;36.30;11.38;;;;;;;0.19;48.94;101163.72;5031919;28;20042;-82
2022/03/23 02:40:27;;;;;;;39.30;10.38;;;;;;;0.38;48.97;101199.78;5035069;28;20033;-81
2022/03/23 02:42:54;;;;;;;30.77;10.13;;;;;;;0.39;48.80;101200.66;4999388;28;20131;-81
2022/03/23 02:45:20;;;;;;;28.55;9.43;;;;;;;0.31;48.91;101179.75;5019137;28;20356;-81
2022/03/23 02:47:46;;;;;;;17.30;6.57;;;;;;;0.41;48.75;101188.81;5021504;28;20061;-81
2022/03/23 02:50:12;;;;;;;28.50;8.43;;;;;;;0.07;48.61;101125.53;5033215;28;20410;-82
2022/03/23 03:01:52;;;;;;;25.27;7.25;;;;;;;0.62;48.89;101198.47;5026720;28;20044;-79
2022/03/23 03:04:02;;;;;;;25.42;9.75;;;;;;;0.44;48.81;101207.78;5020603;28;20567;-82
2022/03/23 03:06:29;;;;;;;35.60;10.68;;;;;;;0.18;48.35;101173.06;5022467;28;20037;-81
2022/03/23 03:08:55;;;;;;;33.33;10.80;;;;;;;0.39;48.71;101210.91;5019847;28;20188;-79
2022/03/23 03:11:23;;;;;;;35.95;11.77;;;;;;;0.41;48.92;101199.06;5009715;28;20136;-81
2022/03/23 03:13:50;;;;;;;39.33;10.98;;;;;;;0.35;48.52;101189.38;5021918;28;20050;-82
2022/03/23 03:16:17;;;;;;;36.70;10.82;;;;;;;0.02;49.17;101129.50;5021563;28;20382;-83
2022/03/23 03:18:44;;;;;;;45.03;12.52;;;;;;;0.21;48.83;101172.38;5024244;28;20037;-81
2022/03/23 03:21:11;;;;;;;24.63;9.15;;;;;;;0.38;49.19;101196.34;5032613;28;20095;-80
2022/03/23 03:23:40;;;;;;;49.90;17.67;;;;;;;0.39;49.57;101199.00;5012463;28;20723;-82
2022/03/23 03:26:06;;;;;;;31.67;11.20;;;;;;;-0.10;49.29;101101.56;5019720;28;20037;-82
2022/03/23 03:28:34;;;;;;;28.45;8.02;;;;;;;0.47;49.06;101196.84;5041119;28;20064;-82
2022/03/23 03:31:05;;;;;;;35.92;9.77;;;;;;;0.53;49.85;101192.06;5043495;28;20041;-81
2022/03/23 03:33:31;;;;;;;22.25;8.27;;;;;;;0.55;49.54;101177.63;5041186;28;20109;-80
2022/03/23 03:35:58;;;;;;;20.42;7.95;;;;;;;0.53;49.79;101166.44;5038844;28;20053;-82
2022/03/23 03:38:24;;;;;;;21.52;6.90;;;;;;;0.47;49.23;101135.38;5042824;28;20025;-82
2022/03/23 03:40:50;;;;;;;22.60;7.03;;;;;;;0.47;49.00;101132.81;5042739;28;20109;-83
2022/03/23 03:43:18;;;;;;;45.70;11.30;;;;;;;0.85;49.18;101166.41;5044523;28;20056;-80
2022/03/23 03:45:46;;;;;;;34.42;11.00;;;;;;;0.82;48.54;101159.41;5041255;28;20041;-81
2022/03/23 03:48:13;;;;;;;35.50;9.55;;;;;;;0.68;49.21;101142.44;5027863;28;20041;-86
2022/03/23 03:50:40;;;;;;;43.10;9.95;;;;;;;1.09;48.72;101178.72;5035826;28;20045;-83
2022/03/23 03:53:22;;;;;;;22.17;7.57;;;;;;;0.98;48.31;101142.28;5028431;28;20042;-82
2022/03/23 03:55:48;;;;;;;;;;;;;;;1.39;48.73;101181.97;5012798;28;20501;-84
2022/03/23 03:58:14;;;;;;;16.73;6.30;;;;;;;1.52;48.51;101156.94;5026402;28;19917;-84
2022/03/23 04:00:40;;;;;;;19.95;7.22;;;;;;;1.56;47.76;101140.88;5027336;28;20527;-81
2022/03/23 04:03:09;;;;;;;34.17;10.68;;;;;;;1.75;47.68;101146.09;5030997;28;20041;-82
2022/03/23 04:05:35;;;;;;;27.42;10.25;;;;;;;1.80;47.55;101167.75;5021600;28;20509;-82
2022/03/23 04:08:01;;;;;;;17.38;6.05;;;;;;;1.79;47.69;101124.91;5023487;28;20040;-81
2022/03/23 04:10:28;;;;;;;35.42;10.20;;;;;;;2.03;47.21;101147.44;5026805;28;20050;-81
2022/03/23 04:12:56;;;;;;;27.73;9.00;;;;;;;2.10;47.18;101140.91;5024328;28;20122;-83
2022/03/23 04:15:24;;;;;;;31.98;11.57;;;;;;;2.27;46.99;101146.81;5023740;28;20045;-81
2022/03/23 04:17:51;;;;;;;29.08;10.68;;;;;;;2.31;47.29;101127.28;5011375;28;20042;-81
2022/03/23 04:20:17;;;;;;;40.00;10.43;;;;;;;2.52;46.95;101135.13;5024595;28;20169;-79
2022/03/23 04:22:43;;;;;;;32.10;12.23;;;;;;;2.77;46.65;101137.06;5024697;28;20041;-80
2022/03/23 04:25:11;;;;;;;27.83;10.95;;;;;;;2.98;46.27;101149.97;5022765;28;20631;-82
2022/03/23 04:27:48;;;;;;;25.85;11.70;;;;;;;3.20;45.66;101145.75;5024850;28;20336;-84
2022/03/23 04:30:16;;;;;;;40.15;12.57;;;;;;;3.41;45.83;101142.38;5010141;28;20033;-84
2022/03/23 04:32:44;;;;;;;34.30;12.27;;;;;;;3.31;45.31;101093.09;5023578;28;20091;-85
2022/03/23 04:35:11;;;;;;;44.38;14.13;;;;;;;3.36;45.58;101075.25;5024436;28;20061;-82
2022/03/23 04:37:40;;;;;;;39.70;13.88;;;;;;;3.49;45.33;101034.59;5036602;28;20520;-79
2022/03/23 04:40:11;;;;;;;27.98;12.55;;;;;;;4.59;45.26;101119.47;5030983;28;20038;-80
2022/03/23 04:42:38;;;;;;;30.73;12.85;;;;;;;5.30;44.27;101140.88;5025097;28;20152;-83
2022/03/23 04:45:06;;;;;;;36.35;12.68;;;;;;;5.37;43.40;101092.06;5025060;28;20042;-82
2022/03/23 04:47:33;;;;;;;29.45;12.30;;;;;;;5.79;42.62;101082.19;5023547;28;20041;-84
2022/03/23 04:50:05;;;;;;;59.10;14.27;;;;;;;6.45;42.94;101135.88;4996161;28;20493;-82
2022/03/23 04:52:31;;;;;;;31.35;13.57;;;;;;;6.66;42.23;101134.75;5027884;28;20045;-80
2022/03/23 04:54:57;;;;;;;29.15;12.75;;;;;;;6.90;41.55;101103.53;5038654;28;20152;-80
2022/03/23 04:57:27;;;;;;;28.02;12.50;;;;;;;7.37;41.40;101042.59;5033422;28;20077;-80
2022/03/23 04:59:54;;;;;;;37.67;13.55;;;;;;;9.45;40.33;101106.44;5027267;28;20053;-81
2022/03/23 05:02:20;;;;;;;35.60;12.68;;;;;;;11.27;38.60;101110.53;5019199;28;20045;-81
2022/03/23 05:04:46;;;;;;;36.53;13.43;;;;;;;12.83;36.25;101107.13;5010469;28;20040;-82
2022/03/23 05:07:13;;;;;;;42.60;15.35;;;;;;;14.06;34.47;101081.84;5025665;28;20438;-78
2022/03/23 05:09:39;;;;;;;45.38;15.63;;;;;;;15.49;32.80;101095.03;5029797;28;20042;-78
2022/03/23 05:12:10;;;;;;;32.38;13.68;;;;;;;16.71;31.40;101097.22;5026496;28;20049;-79
2022/03/23 05:14:37;;;;;;;40.75;13.02;;;;;;;17.77;29.80;101078.03;5027164;28;20526;-78
2022/03/23 05:17:04;;;;;;;41.22;13.77;;;;;;;18.70;28.44;101057.72;5031084;28;20091;-77
2022/03/23 05:19:31;;;;;;;42.58;12.75;;;;;;;19.88;27.15;101081.25;5031945;28;20041;-79
2022/03/23 05:21:57;;;;;;;29.88;12.98;;;;;;;20.81;26.21;101083.84;5023594;28;20060;-83
2022/03/23 05:24:27;;;;;;;27.95;13.23;;;;;;;21.57;24.89;101046.09;5013941;28;20136;-79
2022/03/23 05:26:53;;;;;;;27.92;13.52;;;;;;;22.70;23.58;101073.78;5006911;28;20114;-80
2022/03/23 05:29:19;;;;;;;31.42;14.85;;;;;;;23.44;22.60;101067.25;5022799;28;20130;-80
2022/03/23 05:31:45;;;;;;;39.22;14.95;;;;;;;24.21;21.98;101047.06;5042329;28;20069;-81
2022/03/23 05:34:11;;;;;;;31.23;13.95;;;;;;;25.11;21.20;101056.97;5026362;28;20041;-79
2022/03/23 05:36:37;;;;;;;33.38;14.05;;;;;;;25.84;20.63;101045.25;5027572;28;20087;-79
2022/03/23 05:39:04;;;;;;;23.52;12.80;;;;;;;26.68;19.83;101062.03;5028575;28;20049;-79
2022/03/23 05:41:29;;;;;;;31.45;12.90;;;;;;;27.42;18.57;101034.69;5025225;28;20102;-81
2022/03/23 05:43:55;;;;;;;34.03;12.05;;;;;;;28.25;18.08;101042.06;5024467;28;20083;-78
2022/03/23 05:46:21;;;;;;;26.52;11.63;;;;;;;28.92;17.33;101054.72;5021046;28;20144;-80
2022/03/23 05:48:47;;;;;;;21.17;11.10;;;;;;;29.41;16.27;101045.22;5003707;28;20170;-80
2022/03/23 05:51:13;;;;;;;24.58;11.73;;;;;;;29.96;16.09;101039.63;5010104;28;20072;-79
2022/03/23 05:53:40;;;;;;;32.00;12.27;;;;;;;30.63;15.30;101059.88;5013054;28;20056;-81
2022/03/23 05:56:07;;;;;;;26.02;11.52;;;;;;;31.15;15.47;101030.06;5009984;28;20038;-78
2022/03/23 05:58:41;;;;;;;32.58;11.57;;;;;;;31.98;14.55;101048.75;5030284;28;20052;-80
2022/03/23 06:01:07;;;;;;;30.90;12.95;;;;;;;32.86;14.03;101048.84;5032488;28;20092;-82
2022/03/23 06:03:35;;;;;;;20.45;10.05;;;;;;;33.43;13.30;101038.66;5024289;28;20498;-79
2022/03/23 06:06:09;;;;;;;23.65;10.30;;;;;;;33.81;12.87;100987.72;5015071;28;20044;-82
2022/03/23 06:08:35;;;;;;;19.48;8.63;;;;;;;33.91;12.61;100960.78;5033512;28;20439;-79
2022/03/23 06:11:04;;;;;;;16.92;8.55;;;;;;;34.73;12.22;101001.09;5030959;28;20048;-80
2022/03/23 06:13:30;;;;;;;21.65;8.95;;;;;;;35.43;11.79;101023.34;5032510;28;20127;-80
2022/03/23 06:15:57;;;;;;;14.18;7.88;;;;;;;35.52;11.61;100958.56;5015761;28;20045;-84
2022/03/23 06:18:23;;;;;;;20.45;8.60;;;;;;;36.34;11.20;101035.34;5036136;28;20128;-81
2022/03/23 06:20:49;;;;;;;19.70;8.68;;;;;;;36.75;10.85;101043.06;5040792;28;20534;-80
2022/03/23 06:23:15;;;;;;;19.13;7.45;;;;;;;37.30;10.58;101027.56;5035613;28;20095;-82
2022/03/23 06:25:41;;;;;;;9.02;6.20;;;;;;;37.71;10.44;101010.69;5015579;28;20041;-80
2022/03/23 06:28:11;;;;;;;14.32;6.10;;;;;;;38.08;9.88;101019.50;5010233;28;20112;-82
2022/03/23 06:30:40;;;;;;;12.68;6.05;;;;;;;38.58;9.52;101028.63;5013470;28;20355;-82
2022/03/23 06:33:07;;;;;;;8.52;5.20;;;;;;;39.19;9.26;101030.97;5012678;28;20387;-81
2022/03/23 06:35:33;;;;;;;15.85;6.57;;;;;;;39.10;9.03;100970.31;5014132;28;20523;-82
2022/03/23 06:38:05;;;;;;;13.43;6.28;;;;;;;39.48;8.76;100969.72;5023084;28;20191;-82
2022/03/23 06:40:31;;;;;;;10.25;6.03;;;;;;;40.37;8.39;101031.25;4995787;28;20083;-85
2022/03/23 06:43:00;;;;;;;14.35;6.55;;;;;;;40.78;8.19;101011.88;5028161;28;20053;-79
2022/03/23 06:45:55;;;;;;;12.52;6.25;;;;;;;41.33;7.97;101027.22;4997530;28;20425;-85
2022/03/23 06:49:00;;;;;;;13.30;5.97;;;;;;;41.45;7.91;101020.28;5012341;28;20045;-84
2022/03/23 06:52:31;;;;;;;8.50;5.43;;;;;;;41.10;7.88;100910.81;5010210;28;20045;-84
2022/03/23 06:54:57;;;;;;;15.70;6.10;;;;;;;41.82;8.10;100939.25;5020061;28;20524;-83
2022/03/23 06:57:34;;;;;;;23.45;6.82;;;;;;;41.96;7.61;100943.00;5029571;28;20134;-86
2022/03/23 07:00:23;;;;;;;15.25;7.03;;;;;;;41.91;7.53;100906.34;5004299;28;20497;-87
2022/03/23 07:03:05;;;;;;;15.30;7.38;;;;;;;42.76;7.30;100985.78;5032953;28;20171;-87
2022/03/23 07:05:41;;;;;;;12.05;6.72;;;;;;;43.10;7.17;101006.06;5029446;28;20037;-86
2022/03/23 07:11:29;;;;;;;17.05;6.90;;;;;;;42.80;7.07;100872.22;5014311;28;20053;-83
2022/03/23 07:14:24;;;;;;;14.00;6.25;;;;;;;43.78;6.93;100999.06;5014973;28;20061;-81
2022/03/23 07:16:57;;;;;;;9.43;6.72;;;;;;;43.59;6.83;100913.88;5025156;28;20050;-85
2022/03/23 07:19:30;;;;;;;14.52;5.88;;;;;;;43.61;6.29;100878.03;5031496;28;20523;-81
2022/03/23 07:22:31;;;;;;;11.52;6.50;;;;;;;43.96;6.26;100901.75;5033588;28;20049;-83
2022/03/23 07:24:58;;;;;;;9.15;5.90;;;;;;;44.02;6.22;100881.72;5033044;28;20091;-83
2022/03/23 07:27:27;;;;;;;10.07;5.75;;;;;;;44.60;6.43;100937.88;4998225;28;20068;-82
2022/03/23 07:29:56;;;;;;;21.38;7.35;;;;;;;44.92;6.49;100987.47;5015124;28;20037;-79
2022/03/23 07:33:06;;;;;;;12.57;6.75;;;;;;;44.67;6.24;100878.34;5017320;28;20053;-82
2022/03/23 07:35:33;;;;;;;17.98;6.97;;;;;;;45.41;6.18;100969.63;5030197;28;20124;-82
2022/03/23 07:37:59;;;;;;;13.90;6.50;;;;;;;45.22;5.96;100981.47;4992459;28;20494;-85
2022/03/23 07:40:28;;;;;;;13.80;6.63;;;;;;;45.47;6.14;100983.50;5012434;28;20088;-83
2022/03/23 07:42:55;;;;;;;12.45;6.28;;;;;;;45.53;5.99;100953.28;4989829;28;20190;-82
2022/03/23 07:45:21;;;;;;;18.10;6.88;;;;;;;45.72;5.68;100962.50;4995658;28;20069;-79
2022/03/23 07:47:47;;;;;;;17.67;6.32;;;;;;;45.84;5.60;100976.38;5030442;28;20053;-82
2022/03/23 07:50:14;;;;;;;16.30;6.07;;;;;;;44.91;5.75;100919.91;5028604;28;20087;-82
2022/03/23 07:52:40;;;;;;;8.48;4.63;;;;;;;44.91;5.90;100948.19;5010738;28;20042;-84
2022/03/23 07:55:07;;;;;;;8.77;4.57;;;;;;;44.10;5.92;100908.97;4997539;28;20167;-84
2022/03/23 07:57:33;;;;;;;14.98;4.88;;;;;;;43.74;6.22;100943.88;5008155;28;20045;-82
2022/03/23 08:00:03;;;;;;;12.88;5.30;;;;;;;43.67;6.23;100862.72;5031581;28;20048;-85
2022/03/23 08:02:38;;;;;;;14.35;5.57;;;;;;;44.08;6.02;100902.84;5022394;28;20574;-84
2022/03/23 08:05:05;;;;;;;17.67;5.78;;;;;;;44.00;6.01;100953.19;5022293;28;20106;-83
2022/03/23 08:07:34;;;;;;;14.52;5.93;;;;;;;42.96;6.04;100894.81;5039850;28;20578;-81
2022/03/23 08:10:00;;;;;;;8.32;5.28;;;;;;;42.41;6.50;100939.25;5018682;28;20037;-81
2022/03/23 08:12:26;;;;;;;15.52;6.32;;;;;;;42.14;6.20;100895.25;5031503;28;20052;-84
2022/03/23 08:14:52;;;;;;;12.88;5.68;;;;;;;42.04;6.34;100829.16;5030838;28;20128;-80
2022/03/23 08:17:19;;;;;;;10.00;4.97;;;;;;;43.28;6.31;100901.53;5028137;28;20417;-79
2022/03/23 08:20:32;;;;;;;9.52;4.93;;;;;;;43.66;6.47;100899.38;5031666;28;20072;-79
2022/03/23 08:22:44;;;;;;;13.43;6.75;;;;;;;44.14;5.99;100931.31;5030529;28;20053;-80
2022/03/23 08:25:10;;;;;;;17.42;7.47;;;;;;;43.23;5.82;100930.56;4988195;28;20038;-78
2022/03/23 08:27:45;;;;;;;13.43;7.13;;;;;;;42.62;6.11;100915.63;5010873;28;20060;-83
2022/03/23 08:30:12;;;;;;;19.60;7.32;;;;;;;42.50;6.51;100937.22;5008427;28;20110;-83
2022/03/23 08:32:38;;;;;;;16.83;7.18;;;;;;;42.29;6.63;100865.09;5006344;28;20048;-83
2022/03/23 08:35:06;;;;;;;12.05;6.30;;;;;;;42.26;6.53;100876.44;5032953;28;20038;-82
2022/03/23 08:37:33;;;;;;;26.75;8.05;;;;;;;42.07;6.49;100922.50;5019551;28;20072;-85
2022/03/23 08:39:59;;;;;;;14.80;6.75;;;;;;;42.40;6.47;100921.16;5026881;28;20046;-83
2022/03/23 08:42:25;;;;;;;12.05;5.85;;;;;;;42.04;6.18;100872.88;5026639;28;20131;-83
2022/03/23 08:44:52;;;;;;;14.82;6.70;;;;;;;41.65;6.42;100897.66;5022443;28;20186;-84
2022/03/23 08:47:18;;;;;;;13.40;6.30;;;;;;;41.52;6.46;100878.41;5030076;28;20120;-83
2022/03/23 08:49:45;;;;;;;18.70;6.57;;;;;;;41.23;7.02;100859.16;4991241;28;20037;-84
2022/03/23 08:52:11;;;;;;;18.75;5.85;;;;;;;41.47;6.63;100902.69;5010899;28;20961;-83
2022/03/23 08:54:37;;;;;;;15.05;6.13;;;;;;;41.27;6.90;100905.19;5025051;28;20084;-83
2022/03/23 08:57:04;;;;;;;10.35;5.57;;;;;;;41.15;6.77;100847.50;5021621;28;20068;-84
2022/03/23 08:59:30;;;;;;;13.65;6.13;;;;;;;42.05;6.69;100885.47;5005098;28;20042;-82
2022/03/23 09:01:57;;;;;;;20.98;5.13;;;;;;;42.92;6.93;100891.66;5023861;28;20520;-82
2022/03/23 09:04:25;;;;;;;11.27;4.30;;;;;;;43.21;6.57;100895.19;5020720;28;20049;-84
2022/03/23 09:06:52;;;;;;;6.28;3.35;;;;;;;43.72;6.41;100880.22;4992148;28;20520;-81
2022/03/23 09:09:18;;;;;;;4.45;3.00;;;;;;;43.92;6.47;100841.88;5029688;28;20049;-84
2022/03/23 09:11:44;;;;;;;3.80;2.85;;;;;;;44.73;6.07;100885.75;5025049;28;20033;-82
2022/03/23 09:14:16;;;;;;;8.95;4.45;;;;;;;44.73;6.02;100847.31;5009140;28;20045;-85
2022/03/23 09:16:43;;;;;;;20.27;8.98;;;;;;;44.90;5.96;100858.72;5022241;28;20084;-82
2022/03/23 09:19:10;;;;;;;12.57;9.60;;;;;;;45.08;6.40;100857.97;5009488;28;20095;-81
2022/03/23 09:21:38;;;;;;;12.25;10.43;;;;;;;44.75;5.82;100765.66;5018340;28;20038;-83
2022/03/23 09:24:06;;;;;;;16.40;5.70;;;;;;;45.31;6.01;100880.53;5039049;28;20083;-85
2022/03/23 09:26:32;;;;;;;8.50;5.03;;;;;;;44.67;5.46;100805.16;5051063;28;20084;-85
2022/03/23 09:28:58;;;;;;;8.50;5.93;;;;;;;45.01;5.65;100848.97;5023804;28;20045;-83
2022/03/23 09:31:25;;;;;;;8.52;4.38;;;;;;;44.84;5.90;100829.34;5025421;28;20065;-83
2022/03/23 09:33:52;;;;;;;7.80;4.95;;;;;;;45.16;5.97;100873.34;5011093;28;20107;-83
2022/03/23 09:39:03;;;;;;;8.55;4.85;;;;;;;45.34;5.92;100822.44;5008962;28;20143;-86
2022/03/23 09:41:31;;;;;;;6.35;4.03;;;;;;;45.31;5.66;100811.88;5025317;28;20041;-82
2022/03/23 09:43:58;;;;;;;8.50;4.30;;;;;;;45.42;5.79;100812.00;5025988;28;20049;-82
2022/03/23 09:46:24;;;;;;;15.68;4.72;;;;;;;45.01;5.44;100821.50;5028406;28;20099;-84
2022/03/23 09:48:51;;;;;;;10.00;4.68;;;;;;;45.06;5.38;100834.56;5023868;28;20402;-85
2022/03/23 09:51:19;;;;;;;11.82;7.07;;;;;;;45.06;5.76;100840.06;5026972;28;20092;-86
2022/03/23 09:53:51;;;;;;;12.02;9.30;;;;;;;44.27;5.46;100809.84;5025743;28;20466;-80
2022/03/23 09:56:17;;;;;;;15.68;12.02;;;;;;;43.94;5.88;100811.53;5026566;28;20038;-82
2022/03/23 09:58:44;;;;;;;14.43;10.23;;;;;;;44.13;5.83;100800.81;5031307;28;20136;-84
2022/03/23 10:01:28;;;;;;;17.70;11.65;;;;;;;44.20;5.49;100798.91;5037571;28;20125;-82
2022/03/23 10:04:14;;;;;;;14.18;10.00;;;;;;;44.28;5.92;100828.00;5020978;28;20045;-82
2022/03/23 10:07:06;;;;;;;13.65;8.05;;;;;;;44.09;5.72;100822.31;5023178;28;20041;-85
2022/03/23 10:10:10;;;;;;;13.48;10.75;;;;;;;44.17;5.97;100821.25;5002946;28;20098;-84
2022/03/23 10:13:11;;;;;;;12.85;10.23;;;;;;;44.29;5.87;100818.72;5022316;28;20319;-83
2022/03/23 10:16:00;;;;;;;10.05;6.63;;;;;;;44.31;5.77;100806.47;5020839;28;20052;-85
2022/03/23 10:18:47;;;;;;;13.77;8.80;;;;;;;44.22;6.08;100792.13;5023106;28;20050;-85
2022/03/23 10:21:14;;;;;;;12.10;8.02;;;;;;;43.00;5.87;100781.19;5027257;28;20056;-82
2022/03/23 10:23:51;;;;;;;17.30;6.43;;;;;;;39.90;6.09;100769.69;5025567;28;20041;-84
2022/03/23 10:26:17;;;;;;;7.10;4.78;;;;;;;37.33;6.71;100744.28;5022134;28;20733;-81
2022/03/23 10:28:43;;;;;;;11.20;6.72;;;;;;;35.56;7.76;100786.81;5008821;28;20124;-82
2022/03/23 10:31:20;;;;;;;20.88;16.90;;;;;;;33.29;7.93;100775.56;5021346;28;20046;-82
2022/03/23 10:34:07;;;;;;;14.40;10.20;;;;;;;31.74;8.41;100798.75;5033310;28;20556;-83
2022/03/23 10:36:57;;;;;;;23.42;18.67;;;;;;;30.09;9.60;100787.41;4994921;28;20389;-82
2022/03/23 10:39:29;;;;;;;27.00;20.63;;;;;;;29.03;10.03;100780.78;5025965;28;20110;-84
2022/03/23 10:42:04;;;;;;;51.13;14.27;;;;;;;28.16;10.62;100784.03;5025832;28;20443;-81
2022/03/23 10:44:32;;;;;;;16.50;9.35;;;;;;;26.91;10.99;100763.53;5040342;28;20092;-84
2022/03/23 10:46:59;;;;;;;27.98;11.02;;;;;;;25.58;11.11;100656.78;4992191;28;20040;-87
2022/03/23 10:49:37;;;;;;;16.08;4.05;;;;;;;25.63;11.87;100785.28;5009497;28;20041;-81
2022/03/23 10:52:14;;;;;;;9.93;6.57;;;;;;;24.70;11.97;100760.97;5020396;28;20095;-80
2022/03/23 10:54:54;;;;;;;16.80;8.10;;;;;;;23.86;12.52;100734.13;5023956;28;20076;-81
2022/03/23 10:57:23;;;;;;;13.68;6.65;;;;;;;23.12;12.74;100697.88;5020751;28;20523;-83
2022/03/23 10:59:52;;;;;;;12.60;6.63;;;;;;;23.05;13.23;100749.50;5023472;28;20053;-80
2022/03/23 11:02:18;;;;;;;22.85;8.02;;;;;;;22.45;13.80;100731.84;5008073;28;20044;-81
2022/03/23 11:04:46;;;;;;;16.95;6.90;;;;;;;22.25;14.19;100776.78;5020822;28;20124;-82
2022/03/23 11:07:25;;;;;;;11.90;4.50;;;;;;;21.97;14.07;100762.03;5020935;28;20040;-80
2022/03/23 11:18:21;;;;;;;27.05;18.88;;;;;;;20.40;15.54;100743.25;5023131;28;20122;-81
2022/03/23 11:20:52;;;;;;;21.08;14.32;;;;;;;20.13;15.72;100740.63;5021703;28;20038;-81
2022/03/23 11:23:26;;;;;;;;;;;;;;;19.79;15.82;100746.97;4995640;28;20098;-80
2022/03/23 11:26:11;;;;;;;31.00;18.55;;;;;;;19.26;16.00;100726.63;5030820;28;21039;-82
2022/03/23 11:28:45;;;;;;;26.73;10.93;;;;;;;19.02;16.16;100726.44;5032559;28;20041;-84
2022/03/23 11:31:13;;;;;;;12.07;6.65;;;;;;;18.93;16.44;100730.19;5027139;28;20084;-81
2022/03/23 11:33:41;;;;;;;12.02;6.28;;;;;;;18.63;16.28;100708.22;5023358;28;20054;-81
2022/03/23 11:36:11;;;;;;;15.07;4.78;;;;;;;18.50;16.54;100734.03;5009578;28;20037;-82
2022/03/23 11:38:38;;;;;;;12.48;6.30;;;;;;;18.05;16.84;100699.19;5021812;28;20096;-81
2022/03/23 11:41:05;;;;;;;10.40;5.20;;;;;;;18.18;16.91;100738.41;5038288;28;20034;-83
2022/03/23 11:43:36;;;;;;;9.43;4.80;;;;;;;18.10;17.01;100735.94;4992507;28;20045;-80
2022/03/23 11:46:04;;;;;;;7.85;5.38;;;;;;;17.98;17.35;100739.78;5020301;28;20036;-81
2022/03/23 11:48:49;;;;;;;12.68;6.20;;;;;;;17.72;17.53;100732.44;5019338;28;20042;-81
2022/03/23 11:51:40;;;;;;;12.02;5.35;;;;;;;17.53;18.13;100732.03;5021709;28;20045;-81
2022/03/23 11:58:05;;;;;;;9.80;5.10;;;;;;;17.03;18.35;100722.59;5022114;28;21439;-87
2022/03/23 12:00:45;;;;;;;;;;;;;;;16.94;18.45;100728.88;5025641;28;20074;-86
2022/03/23 12:03:12;;;;;;;10.65;4.38;;;;;;;16.82;18.20;100732.63;5021178;28;19976;-81